sensor_id;sensor_type;location;lat;lon;timestamp;temperature;humidity
80824;SHT35;70538;59.122;37.876;2023-09-07T00:01:13;10.44;74.06
80824;SHT35;70538;59.122;37.876;2023-09-07T00:03:41;10.44;73.93
80824;SHT35;70538;59.122;37.876;2023-09-07T00:06:10;10.47;73.86
80824;SHT35;70538;59.122;37.876;2023-09-07T00:08:38;10.47;73.89
80824;SHT35;70538;59.122;37.876;2023-09-07T00:11:06;10.48;73.87
80824;SHT35;70538;59.122;37.876;2023-09-07T00:13:35;10.50;73.83
80824;SHT35;70538;59.122;37.876;2023-09-07T00:16:04;10.50;73.83
80824;SHT35;70538;59.122;37.876;2023-09-07T00:18:33;10.52;74.02
80824;SHT35;70538;59.122;37.876;2023-09-07T00:21:01;10.50;74.00
80824;SHT35;70538;59.122;37.876;2023-09-07T00:23:29;10.50;73.98
80824;SHT35;70538;59.122;37.876;2023-09-07T00:25:57;10.50;74.25
80824;SHT35;70538;59.122;37.876;2023-09-07T00:28:25;10.48;74.40
80824;SHT35;70538;59.122;37.876;2023-09-07T00:30:53;10.45;74.38
80824;SHT35;70538;59.122;37.876;2023-09-07T00:33:21;10.44;74.15
80824;SHT35;70538;59.122;37.876;2023-09-07T00:35:48;10.38;74.21
80824;SHT35;70538;59.122;37.876;2023-09-07T00:38:16;10.37;74.25
80824;SHT35;70538;59.122;37.876;2023-09-07T00:40:44;10.34;74.46
80824;SHT35;70538;59.122;37.876;2023-09-07T00:43:15;10.34;74.69
80824;SHT35;70538;59.122;37.876;2023-09-07T00:45:43;10.33;74.63
80824;SHT35;70538;59.122;37.876;2023-09-07T00:48:12;10.31;74.68
80824;SHT35;70538;59.122;37.876;2023-09-07T00:50:41;10.30;74.60
80824;SHT35;70538;59.122;37.876;2023-09-07T00:53:10;10.30;74.62
80824;SHT35;70538;59.122;37.876;2023-09-07T00:55:38;10.29;74.58
80824;SHT35;70538;59.122;37.876;2023-09-07T00:58:06;10.24;74.59
80824;SHT35;70538;59.122;37.876;2023-09-07T01:00:34;10.27;74.75
80824;SHT35;70538;59.122;37.876;2023-09-07T01:03:02;10.24;74.81
80824;SHT35;70538;59.122;37.876;2023-09-07T01:05:58;10.27;75.17
80824;SHT35;70538;59.122;37.876;2023-09-07T01:08:35;10.27;75.16
80824;SHT35;70538;59.122;37.876;2023-09-07T01:11:16;10.29;75.07
80824;SHT35;70538;59.122;37.876;2023-09-07T01:13:44;10.30;75.02
80824;SHT35;70538;59.122;37.876;2023-09-07T01:16:13;10.24;75.10
80824;SHT35;70538;59.122;37.876;2023-09-07T01:18:41;10.30;75.07
80824;SHT35;70538;59.122;37.876;2023-09-07T01:21:11;10.29;75.12
80824;SHT35;70538;59.122;37.876;2023-09-07T01:23:42;10.27;75.24
80824;SHT35;70538;59.122;37.876;2023-09-07T01:26:11;10.29;75.30
80824;SHT35;70538;59.122;37.876;2023-09-07T01:28:39;10.29;75.38
80824;SHT35;70538;59.122;37.876;2023-09-07T01:31:07;10.31;75.45
80824;SHT35;70538;59.122;37.876;2023-09-07T01:33:35;10.30;75.49
80824;SHT35;70538;59.122;37.876;2023-09-07T01:36:04;10.29;75.53
80824;SHT35;70538;59.122;37.876;2023-09-07T01:38:32;10.25;75.59
80824;SHT35;70538;59.122;37.876;2023-09-07T01:41:00;10.29;75.71
80824;SHT35;70538;59.122;37.876;2023-09-07T01:43:28;10.29;75.69
80824;SHT35;70538;59.122;37.876;2023-09-07T01:45:56;10.25;75.69
80824;SHT35;70538;59.122;37.876;2023-09-07T01:48:26;10.29;75.63
80824;SHT35;70538;59.122;37.876;2023-09-07T01:50:54;10.24;75.54
80824;SHT35;70538;59.122;37.876;2023-09-07T01:53:22;10.23;75.56
80824;SHT35;70538;59.122;37.876;2023-09-07T01:55:54;10.23;75.46
80824;SHT35;70538;59.122;37.876;2023-09-07T01:58:22;10.23;75.46
80824;SHT35;70538;59.122;37.876;2023-09-07T02:00:58;10.24;75.41
80824;SHT35;70538;59.122;37.876;2023-09-07T02:03:26;10.24;75.36
80824;SHT35;70538;59.122;37.876;2023-09-07T02:05:54;10.23;75.25
80824;SHT35;70538;59.122;37.876;2023-09-07T02:08:22;10.23;75.19
80824;SHT35;70538;59.122;37.876;2023-09-07T02:10:50;10.18;75.30
80824;SHT35;70538;59.122;37.876;2023-09-07T02:13:18;10.21;75.28
80824;SHT35;70538;59.122;37.876;2023-09-07T02:15:46;10.21;75.26
80824;SHT35;70538;59.122;37.876;2023-09-07T02:18:15;10.23;75.22
80824;SHT35;70538;59.122;37.876;2023-09-07T02:20:43;10.23;75.11
80824;SHT35;70538;59.122;37.876;2023-09-07T02:23:10;10.25;75.07
80824;SHT35;70538;59.122;37.876;2023-09-07T02:25:38;10.23;75.07
80824;SHT35;70538;59.122;37.876;2023-09-07T02:28:07;10.23;75.05
80824;SHT35;70538;59.122;37.876;2023-09-07T02:30:35;10.27;74.96
80824;SHT35;70538;59.122;37.876;2023-09-07T02:33:03;10.29;74.88
80824;SHT35;70538;59.122;37.876;2023-09-07T02:35:31;10.31;74.92
80824;SHT35;70538;59.122;37.876;2023-09-07T02:37:59;10.36;74.79
80824;SHT35;70538;59.122;37.876;2023-09-07T02:40:27;10.37;74.75
80824;SHT35;70538;59.122;37.876;2023-09-07T02:42:55;10.40;74.96
80824;SHT35;70538;59.122;37.876;2023-09-07T02:45:23;10.40;75.00
80824;SHT35;70538;59.122;37.876;2023-09-07T02:47:51;10.42;74.69
80824;SHT35;70538;59.122;37.876;2023-09-07T02:50:19;10.41;74.49
80824;SHT35;70538;59.122;37.876;2023-09-07T02:52:47;10.38;74.41
80824;SHT35;70538;59.122;37.876;2023-09-07T02:55:14;10.38;74.42
80824;SHT35;70538;59.122;37.876;2023-09-07T02:57:42;10.40;74.44
80824;SHT35;70538;59.122;37.876;2023-09-07T03:00:10;10.42;74.48
80824;SHT35;70538;59.122;37.876;2023-09-07T03:02:39;10.44;74.47
80824;SHT35;70538;59.122;37.876;2023-09-07T03:05:07;10.45;74.47
80824;SHT35;70538;59.122;37.876;2023-09-07T03:07:35;10.44;74.48
80824;SHT35;70538;59.122;37.876;2023-09-07T03:10:03;10.47;74.50
80824;SHT35;70538;59.122;37.876;2023-09-07T03:12:31;10.52;74.46
80824;SHT35;70538;59.122;37.876;2023-09-07T03:14:59;10.51;74.45
80824;SHT35;70538;59.122;37.876;2023-09-07T03:17:33;10.52;74.46
80824;SHT35;70538;59.122;37.876;2023-09-07T03:20:01;10.57;74.41
80824;SHT35;70538;59.122;37.876;2023-09-07T03:22:42;10.59;74.47
80824;SHT35;70538;59.122;37.876;2023-09-07T03:25:10;10.61;74.39
80824;SHT35;70538;59.122;37.876;2023-09-07T03:27:39;10.65;74.41
80824;SHT35;70538;59.122;37.876;2023-09-07T03:30:10;10.69;74.31
80824;SHT35;70538;59.122;37.876;2023-09-07T03:32:38;10.71;74.23
80824;SHT35;70538;59.122;37.876;2023-09-07T03:35:07;10.73;74.17
80824;SHT35;70538;59.122;37.876;2023-09-07T03:37:37;10.75;74.22
80824;SHT35;70538;59.122;37.876;2023-09-07T03:40:06;10.78;74.38
80824;SHT35;70538;59.122;37.876;2023-09-07T03:42:34;10.80;74.39
80824;SHT35;70538;59.122;37.876;2023-09-07T03:45:02;10.80;74.39
80824;SHT35;70538;59.122;37.876;2023-09-07T03:47:31;10.80;74.37
80824;SHT35;70538;59.122;37.876;2023-09-07T03:49:59;10.79;74.30
80824;SHT35;70538;59.122;37.876;2023-09-07T03:52:31;10.83;74.37
80824;SHT35;70538;59.122;37.876;2023-09-07T03:54:59;10.85;74.35
80824;SHT35;70538;59.122;37.876;2023-09-07T03:57:30;10.85;74.53
80824;SHT35;70538;59.122;37.876;2023-09-07T03:59:58;10.89;74.54
80824;SHT35;70538;59.122;37.876;2023-09-07T04:02:26;10.91;74.52
80824;SHT35;70538;59.122;37.876;2023-09-07T04:04:54;10.93;74.39
80824;SHT35;70538;59.122;37.876;2023-09-07T04:07:25;10.97;74.11
80824;SHT35;70538;59.122;37.876;2023-09-07T04:09:53;10.99;74.03
80824;SHT35;70538;59.122;37.876;2023-09-07T04:12:21;10.99;73.99
80824;SHT35;70538;59.122;37.876;2023-09-07T04:14:49;11.00;73.84
80824;SHT35;70538;59.122;37.876;2023-09-07T04:17:17;10.96;73.80
80824;SHT35;70538;59.122;37.876;2023-09-07T04:19:46;10.95;73.87
80824;SHT35;70538;59.122;37.876;2023-09-07T04:22:14;10.92;74.10
80824;SHT35;70538;59.122;37.876;2023-09-07T04:24:41;10.92;74.17
80824;SHT35;70538;59.122;37.876;2023-09-07T04:27:09;10.95;74.20
80824;SHT35;70538;59.122;37.876;2023-09-07T04:29:37;10.92;74.23
80824;SHT35;70538;59.122;37.876;2023-09-07T04:32:04;10.92;74.27
80824;SHT35;70538;59.122;37.876;2023-09-07T04:34:32;10.89;74.28
80824;SHT35;70538;59.122;37.876;2023-09-07T04:37:00;10.89;74.38
80824;SHT35;70538;59.122;37.876;2023-09-07T04:39:28;10.85;74.63
80824;SHT35;70538;59.122;37.876;2023-09-07T04:41:55;10.92;74.68
80824;SHT35;70538;59.122;37.876;2023-09-07T04:44:23;10.96;74.68
80824;SHT35;70538;59.122;37.876;2023-09-07T04:46:50;10.99;74.51
80824;SHT35;70538;59.122;37.876;2023-09-07T04:49:20;11.00;74.57
80824;SHT35;70538;59.122;37.876;2023-09-07T04:51:47;11.07;74.62
80824;SHT35;70538;59.122;37.876;2023-09-07T04:54:15;11.14;74.30
80824;SHT35;70538;59.122;37.876;2023-09-07T04:56:43;11.22;74.32
80824;SHT35;70538;59.122;37.876;2023-09-07T04:59:11;11.33;73.99
80824;SHT35;70538;59.122;37.876;2023-09-07T05:01:38;11.37;73.71
80824;SHT35;70538;59.122;37.876;2023-09-07T05:04:06;11.42;73.62
80824;SHT35;70538;59.122;37.876;2023-09-07T05:06:34;11.51;73.69
80824;SHT35;70538;59.122;37.876;2023-09-07T05:09:04;11.58;73.59
80824;SHT35;70538;59.122;37.876;2023-09-07T05:11:32;11.69;73.46
80824;SHT35;70538;59.122;37.876;2023-09-07T05:14:02;11.79;73.33
80824;SHT35;70538;59.122;37.876;2023-09-07T05:16:30;11.85;73.12
80824;SHT35;70538;59.122;37.876;2023-09-07T05:18:58;11.92;72.92
80824;SHT35;70538;59.122;37.876;2023-09-07T05:21:25;11.99;72.69
80824;SHT35;70538;59.122;37.876;2023-09-07T05:23:53;12.02;72.59
80824;SHT35;70538;59.122;37.876;2023-09-07T05:26:22;12.09;71.95
80824;SHT35;70538;59.122;37.876;2023-09-07T05:28:52;12.16;72.03
80824;SHT35;70538;59.122;37.876;2023-09-07T05:31:19;12.23;71.87
80824;SHT35;70538;59.122;37.876;2023-09-07T05:33:47;12.27;71.75
80824;SHT35;70538;59.122;37.876;2023-09-07T05:36:15;12.30;71.68
80824;SHT35;70538;59.122;37.876;2023-09-07T05:38:43;12.33;71.49
80824;SHT35;70538;59.122;37.876;2023-09-07T05:41:10;12.34;71.28
80824;SHT35;70538;59.122;37.876;2023-09-07T05:43:38;12.34;71.47
80824;SHT35;70538;59.122;37.876;2023-09-07T05:46:06;12.40;71.53
80824;SHT35;70538;59.122;37.876;2023-09-07T05:48:34;12.47;71.28
80824;SHT35;70538;59.122;37.876;2023-09-07T05:51:02;12.58;71.07
80824;SHT35;70538;59.122;37.876;2023-09-07T05:53:30;12.68;70.62
80824;SHT35;70538;59.122;37.876;2023-09-07T05:55:58;12.77;70.29
80824;SHT35;70538;59.122;37.876;2023-09-07T05:58:26;12.81;70.23
80824;SHT35;70538;59.122;37.876;2023-09-07T06:00:54;12.93;69.98
80824;SHT35;70538;59.122;37.876;2023-09-07T06:03:22;13.06;69.19
80824;SHT35;70538;59.122;37.876;2023-09-07T06:05:50;13.02;69.33
80824;SHT35;70538;59.122;37.876;2023-09-07T06:08:18;12.99;69.39
80824;SHT35;70538;59.122;37.876;2023-09-07T06:10:45;13.05;69.33
80824;SHT35;70538;59.122;37.876;2023-09-07T06:13:13;13.15;68.74
80824;SHT35;70538;59.122;37.876;2023-09-07T06:15:41;13.19;68.72
80824;SHT35;70538;59.122;37.876;2023-09-07T06:18:08;13.24;68.56
80824;SHT35;70538;59.122;37.876;2023-09-07T06:20:36;13.33;68.71
80824;SHT35;70538;59.122;37.876;2023-09-07T06:23:04;13.44;68.00
80824;SHT35;70538;59.122;37.876;2023-09-07T06:25:32;13.50;67.68
80824;SHT35;70538;59.122;37.876;2023-09-07T06:28:00;13.48;67.61
80824;SHT35;70538;59.122;37.876;2023-09-07T06:30:27;13.54;67.76
80824;SHT35;70538;59.122;37.876;2023-09-07T06:32:55;13.62;67.58
80824;SHT35;70538;59.122;37.876;2023-09-07T06:35:24;13.85;67.32
80824;SHT35;70538;59.122;37.876;2023-09-07T06:37:52;13.95;66.44
80824;SHT35;70538;59.122;37.876;2023-09-07T06:40:20;14.01;66.25
80824;SHT35;70538;59.122;37.876;2023-09-07T06:42:48;14.02;65.71
80824;SHT35;70538;59.122;37.876;2023-09-07T06:45:15;14.01;64.88
80824;SHT35;70538;59.122;37.876;2023-09-07T06:47:43;13.97;64.88
80824;SHT35;70538;59.122;37.876;2023-09-07T06:50:11;13.99;64.48
80824;SHT35;70538;59.122;37.876;2023-09-07T06:52:39;14.04;64.82
80824;SHT35;70538;59.122;37.876;2023-09-07T06:55:08;14.22;64.78
80824;SHT35;70538;59.122;37.876;2023-09-07T06:57:36;14.41;63.83
80824;SHT35;70538;59.122;37.876;2023-09-07T07:00:04;14.59;63.83
80824;SHT35;70538;59.122;37.876;2023-09-07T07:02:32;14.71;63.38
80824;SHT35;70538;59.122;37.876;2023-09-07T07:05:01;14.87;63.12
80824;SHT35;70538;59.122;37.876;2023-09-07T07:07:30;15.06;62.97
80824;SHT35;70538;59.122;37.876;2023-09-07T07:09:58;15.19;63.00
80824;SHT35;70538;59.122;37.876;2023-09-07T07:12:26;15.33;62.68
80824;SHT35;70538;59.122;37.876;2023-09-07T07:14:54;15.39;61.92
80824;SHT35;70538;59.122;37.876;2023-09-07T07:17:22;15.37;60.75
80824;SHT35;70538;59.122;37.876;2023-09-07T07:19:50;15.27;60.95
80824;SHT35;70538;59.122;37.876;2023-09-07T07:22:18;15.25;61.04
80824;SHT35;70538;59.122;37.876;2023-09-07T07:24:48;15.33;60.23
80824;SHT35;70538;59.122;37.876;2023-09-07T07:27:16;15.40;60.22
80824;SHT35;70538;59.122;37.876;2023-09-07T07:29:46;15.49;58.29
80824;SHT35;70538;59.122;37.876;2023-09-07T07:32:14;15.47;57.72
80824;SHT35;70538;59.122;37.876;2023-09-07T07:34:41;15.37;57.80
80824;SHT35;70538;59.122;37.876;2023-09-07T07:37:10;15.27;57.67
80824;SHT35;70538;59.122;37.876;2023-09-07T07:39:38;15.29;57.58
80824;SHT35;70538;59.122;37.876;2023-09-07T07:42:06;15.39;57.73
80824;SHT35;70538;59.122;37.876;2023-09-07T07:44:33;15.54;56.77
80824;SHT35;70538;59.122;37.876;2023-09-07T07:47:01;15.61;56.73
80824;SHT35;70538;59.122;37.876;2023-09-07T07:49:29;15.70;56.50
80824;SHT35;70538;59.122;37.876;2023-09-07T07:51:58;15.77;56.47
80824;SHT35;70538;59.122;37.876;2023-09-07T07:54:26;15.95;56.39
80824;SHT35;70538;59.122;37.876;2023-09-07T07:56:55;16.10;55.48
80824;SHT35;70538;59.122;37.876;2023-09-07T07:59:23;16.15;54.22
80824;SHT35;70538;59.122;37.876;2023-09-07T08:01:51;16.08;53.70
80824;SHT35;70538;59.122;37.876;2023-09-07T08:04:19;15.97;53.87
80824;SHT35;70538;59.122;37.876;2023-09-07T08:06:47;16.04;54.41
80824;SHT35;70538;59.122;37.876;2023-09-07T08:09:14;16.26;53.61
80824;SHT35;70538;59.122;37.876;2023-09-07T08:11:42;16.43;51.73
80824;SHT35;70538;59.122;37.876;2023-09-07T08:14:10;16.39;52.24
80824;SHT35;70538;59.122;37.876;2023-09-07T08:16:40;16.53;52.88
80824;SHT35;70538;59.122;37.876;2023-09-07T08:19:08;16.71;52.24
80824;SHT35;70538;59.122;37.876;2023-09-07T08:21:36;16.71;50.88
80824;SHT35;70538;59.122;37.876;2023-09-07T08:24:05;16.63;51.91
80824;SHT35;70538;59.122;37.876;2023-09-07T08:26:35;16.60;53.05
80824;SHT35;70538;59.122;37.876;2023-09-07T08:29:08;16.59;52.75
80824;SHT35;70538;59.122;37.876;2023-09-07T08:31:37;16.47;52.65
80824;SHT35;70538;59.122;37.876;2023-09-07T08:34:07;16.42;53.36
80824;SHT35;70538;59.122;37.876;2023-09-07T08:36:38;16.37;52.19
80824;SHT35;70538;59.122;37.876;2023-09-07T08:39:07;16.36;52.17
80824;SHT35;70538;59.122;37.876;2023-09-07T08:41:41;16.45;51.89
80824;SHT35;70538;59.122;37.876;2023-09-07T08:44:28;16.50;51.15
80824;SHT35;70538;59.122;37.876;2023-09-07T08:46:57;16.56;51.19
80824;SHT35;70538;59.122;37.876;2023-09-07T08:49:28;16.54;49.85
80824;SHT35;70538;59.122;37.876;2023-09-07T08:51:58;16.54;49.93
80824;SHT35;70538;59.122;37.876;2023-09-07T08:54:27;16.68;50.38
80824;SHT35;70538;59.122;37.876;2023-09-07T08:56:57;17.01;49.55
80824;SHT35;70538;59.122;37.876;2023-09-07T08:59:25;17.30;49.28
80824;SHT35;70538;59.122;37.876;2023-09-07T09:01:57;17.66;48.57
80824;SHT35;70538;59.122;37.876;2023-09-07T09:04:28;17.84;45.79
80824;SHT35;70538;59.122;37.876;2023-09-07T09:06:58;17.64;44.84
80824;SHT35;70538;59.122;37.876;2023-09-07T09:09:26;17.40;45.61
80824;SHT35;70538;59.122;37.876;2023-09-07T09:11:55;17.25;46.39
80824;SHT35;70538;59.122;37.876;2023-09-07T09:14:22;17.11;47.35
80824;SHT35;70538;59.122;37.876;2023-09-07T09:16:51;17.01;47.32
80824;SHT35;70538;59.122;37.876;2023-09-07T09:19:33;16.96;47.27
80824;SHT35;70538;59.122;37.876;2023-09-07T09:22:01;17.11;47.40
80824;SHT35;70538;59.122;37.876;2023-09-07T09:24:32;17.33;46.86
80824;SHT35;70538;59.122;37.876;2023-09-07T09:27:03;17.56;46.36
80824;SHT35;70538;59.122;37.876;2023-09-07T09:29:33;17.51;45.26
80824;SHT35;70538;59.122;37.876;2023-09-07T09:32:06;17.40;45.16
80824;SHT35;70538;59.122;37.876;2023-09-07T09:34:36;17.22;44.64
80824;SHT35;70538;59.122;37.876;2023-09-07T09:37:12;17.04;45.78
80824;SHT35;70538;59.122;37.876;2023-09-07T09:39:41;17.02;46.73
80824;SHT35;70538;59.122;37.876;2023-09-07T09:42:10;17.46;47.02
80824;SHT35;70538;59.122;37.876;2023-09-07T09:44:38;18.04;45.47
80824;SHT35;70538;59.122;37.876;2023-09-07T09:47:08;18.42;44.14
80824;SHT35;70538;59.122;37.876;2023-09-07T09:49:37;18.43;44.08
80824;SHT35;70538;59.122;37.876;2023-09-07T09:52:07;18.57;44.09
80824;SHT35;70538;59.122;37.876;2023-09-07T09:54:35;18.87;43.56
80824;SHT35;70538;59.122;37.876;2023-09-07T09:57:03;19.35;41.90
80824;SHT35;70538;59.122;37.876;2023-09-07T09:59:31;19.78;40.27
80824;SHT35;70538;59.122;37.876;2023-09-07T10:02:00;20.07;39.72
80824;SHT35;70538;59.122;37.876;2023-09-07T10:04:29;20.29;37.93
80824;SHT35;70538;59.122;37.876;2023-09-07T10:07:01;20.33;38.28
80824;SHT35;70538;59.122;37.876;2023-09-07T10:09:33;20.69;37.43
80824;SHT35;70538;59.122;37.876;2023-09-07T10:12:02;21.11;36.25
80824;SHT35;70538;59.122;37.876;2023-09-07T10:14:40;21.45;34.45
80824;SHT35;70538;59.122;37.876;2023-09-07T10:17:08;21.55;33.74
80824;SHT35;70538;59.122;37.876;2023-09-07T10:19:37;21.58;33.93
80824;SHT35;70538;59.122;37.876;2023-09-07T10:22:07;21.65;33.93
80824;SHT35;70538;59.122;37.876;2023-09-07T10:24:35;21.77;33.69
80824;SHT35;70538;59.122;37.876;2023-09-07T10:27:06;21.46;34.36
80824;SHT35;70538;59.122;37.876;2023-09-07T10:29:50;21.46;34.95
80824;SHT35;70538;59.122;37.876;2023-09-07T10:32:23;21.66;34.57
80824;SHT35;70538;59.122;37.876;2023-09-07T10:34:51;22.07;34.18
80824;SHT35;70538;59.122;37.876;2023-09-07T10:37:19;22.37;34.42
80824;SHT35;70538;59.122;37.876;2023-09-07T10:39:47;22.77;34.04
80824;SHT35;70538;59.122;37.876;2023-09-07T10:42:21;22.93;32.89
80824;SHT35;70538;59.122;37.876;2023-09-07T10:44:50;22.35;33.14
80824;SHT35;70538;59.122;37.876;2023-09-07T10:47:19;21.70;34.29
80824;SHT35;70538;59.122;37.876;2023-09-07T10:49:47;21.34;34.85
80824;SHT35;70538;59.122;37.876;2023-09-07T10:52:16;20.79;36.32
80824;SHT35;70538;59.122;37.876;2023-09-07T10:54:44;20.07;37.58
80824;SHT35;70538;59.122;37.876;2023-09-07T10:57:13;19.67;38.94
80824;SHT35;70538;59.122;37.876;2023-09-07T10:59:45;20.01;37.71
80824;SHT35;70538;59.122;37.876;2023-09-07T11:02:15;20.69;37.26
80824;SHT35;70538;59.122;37.876;2023-09-07T11:04:44;21.30;35.59
80824;SHT35;70538;59.122;37.876;2023-09-07T11:07:13;21.59;33.65
80824;SHT35;70538;59.122;37.876;2023-09-07T11:09:42;21.30;33.35
80824;SHT35;70538;59.122;37.876;2023-09-07T11:12:15;20.81;34.94
80824;SHT35;70538;59.122;37.876;2023-09-07T11:14:47;20.50;35.24
80824;SHT35;70538;59.122;37.876;2023-09-07T11:17:16;20.12;36.33
80824;SHT35;70538;59.122;37.876;2023-09-07T11:19:44;20.14;35.79
80824;SHT35;70538;59.122;37.876;2023-09-07T11:22:13;20.11;36.14
80824;SHT35;70538;59.122;37.876;2023-09-07T11:24:41;19.93;36.74
80824;SHT35;70538;59.122;37.876;2023-09-07T11:27:09;19.63;36.86
80824;SHT35;70538;59.122;37.876;2023-09-07T11:29:37;19.31;37.35
80824;SHT35;70538;59.122;37.876;2023-09-07T11:32:10;18.87;37.69
80824;SHT35;70538;59.122;37.876;2023-09-07T11:34:52;18.50;37.91
80824;SHT35;70538;59.122;37.876;2023-09-07T11:37:25;18.21;38.61
80824;SHT35;70538;59.122;37.876;2023-09-07T11:39:53;18.06;39.31
80824;SHT35;70538;59.122;37.876;2023-09-07T11:42:21;18.05;40.00
80824;SHT35;70538;59.122;37.876;2023-09-07T11:44:50;18.32;39.91
80824;SHT35;70538;59.122;37.876;2023-09-07T11:47:18;18.84;39.30
80824;SHT35;70538;59.122;37.876;2023-09-07T11:49:47;19.78;37.95
80824;SHT35;70538;59.122;37.876;2023-09-07T11:52:16;20.84;36.30
80824;SHT35;70538;59.122;37.876;2023-09-07T11:54:44;21.72;34.69
80824;SHT35;70538;59.122;37.876;2023-09-07T11:57:12;21.97;33.93
80824;SHT35;70538;59.122;37.876;2023-09-07T11:59:40;21.79;34.79
80824;SHT35;70538;59.122;37.876;2023-09-07T12:02:24;21.76;34.39
80824;SHT35;70538;59.122;37.876;2023-09-07T12:04:52;21.85;34.42
80824;SHT35;70538;59.122;37.876;2023-09-07T12:07:22;22.25;33.99
80824;SHT35;70538;59.122;37.876;2023-09-07T12:09:52;22.82;32.88
80824;SHT35;70538;59.122;37.876;2023-09-07T12:12:19;23.10;32.00
80824;SHT35;70538;59.122;37.876;2023-09-07T12:14:47;23.31;31.59
80824;SHT35;70538;59.122;37.876;2023-09-07T12:17:15;23.38;31.88
80824;SHT35;70538;59.122;37.876;2023-09-07T12:19:44;23.13;31.99
80824;SHT35;70538;59.122;37.876;2023-09-07T12:22:13;22.65;32.27
80824;SHT35;70538;59.122;37.876;2023-09-07T12:24:41;21.98;32.41
80824;SHT35;70538;59.122;37.876;2023-09-07T12:27:09;21.62;33.16
80824;SHT35;70538;59.122;37.876;2023-09-07T12:29:37;21.18;33.47
80824;SHT35;70538;59.122;37.876;2023-09-07T12:32:05;20.55;34.44
80824;SHT35;70538;59.122;37.876;2023-09-07T12:34:33;20.15;35.76
80824;SHT35;70538;59.122;37.876;2023-09-07T12:37:02;20.65;35.41
80824;SHT35;70538;59.122;37.876;2023-09-07T12:39:32;21.55;34.56
80824;SHT35;70538;59.122;37.876;2023-09-07T12:42:00;22.60;33.10
80824;SHT35;70538;59.122;37.876;2023-09-07T12:44:29;23.52;31.91
80824;SHT35;70538;59.122;37.876;2023-09-07T12:46:57;24.00;30.49
80824;SHT35;70538;59.122;37.876;2023-09-07T12:49:25;24.21;29.75
80824;SHT35;70538;59.122;37.876;2023-09-07T12:51:53;24.16;30.06
80824;SHT35;70538;59.122;37.876;2023-09-07T12:54:21;24.20;30.09
80824;SHT35;70538;59.122;37.876;2023-09-07T12:56:49;24.31;30.17
80824;SHT35;70538;59.122;37.876;2023-09-07T12:59:17;24.07;29.58
80824;SHT35;70538;59.122;37.876;2023-09-07T13:01:44;23.65;30.29
80824;SHT35;70538;59.122;37.876;2023-09-07T13:04:13;23.45;30.58
80824;SHT35;70538;59.122;37.876;2023-09-07T13:06:41;23.42;30.38
80824;SHT35;70538;59.122;37.876;2023-09-07T13:09:09;23.48;30.57
80824;SHT35;70538;59.122;37.876;2023-09-07T13:11:39;23.54;29.73
80824;SHT35;70538;59.122;37.876;2023-09-07T13:14:07;23.51;28.35
80824;SHT35;70538;59.122;37.876;2023-09-07T13:16:38;23.59;29.41
80824;SHT35;70538;59.122;37.876;2023-09-07T13:19:06;23.55;29.82
80824;SHT35;70538;59.122;37.876;2023-09-07T13:21:34;23.28;30.38
80824;SHT35;70538;59.122;37.876;2023-09-07T13:24:03;22.82;30.89
80824;SHT35;70538;59.122;37.876;2023-09-07T13:26:30;22.90;30.98
80824;SHT35;70538;59.122;37.876;2023-09-07T13:28:58;23.35;30.61
80824;SHT35;70538;59.122;37.876;2023-09-07T13:31:26;23.83;29.19
80824;SHT35;70538;59.122;37.876;2023-09-07T13:33:54;23.89;28.52
80824;SHT35;70538;59.122;37.876;2023-09-07T13:36:22;23.55;28.52
80824;SHT35;70538;59.122;37.876;2023-09-07T13:38:50;22.77;29.38
80824;SHT35;70538;59.122;37.876;2023-09-07T13:41:19;22.69;30.56
80824;SHT35;70538;59.122;37.876;2023-09-07T13:43:47;23.34;29.68
80824;SHT35;70538;59.122;37.876;2023-09-07T13:46:15;23.75;28.34
80824;SHT35;70538;59.122;37.876;2023-09-07T13:48:43;23.79;27.44
80824;SHT35;70538;59.122;37.876;2023-09-07T13:51:10;23.42;27.61
80824;SHT35;70538;59.122;37.876;2023-09-07T13:53:38;22.79;28.24
80824;SHT35;70538;59.122;37.876;2023-09-07T13:56:06;22.32;29.06
80824;SHT35;70538;59.122;37.876;2023-09-07T13:58:33;21.73;29.77
80824;SHT35;70538;59.122;37.876;2023-09-07T14:01:01;21.05;30.90
80824;SHT35;70538;59.122;37.876;2023-09-07T14:03:29;20.55;31.91
80824;SHT35;70538;59.122;37.876;2023-09-07T14:05:57;20.03;33.05
80824;SHT35;70538;59.122;37.876;2023-09-07T14:08:25;19.59;33.92
80824;SHT35;70538;59.122;37.876;2023-09-07T14:10:53;19.33;34.65
80824;SHT35;70538;59.122;37.876;2023-09-07T14:13:20;19.33;35.00
80824;SHT35;70538;59.122;37.876;2023-09-07T14:15:48;19.78;34.80
80824;SHT35;70538;59.122;37.876;2023-09-07T14:18:16;20.39;34.08
80824;SHT35;70538;59.122;37.876;2023-09-07T14:20:44;20.88;33.06
80824;SHT35;70538;59.122;37.876;2023-09-07T14:23:12;21.28;32.69
80824;SHT35;70538;59.122;37.876;2023-09-07T14:25:40;21.62;32.43
80824;SHT35;70538;59.122;37.876;2023-09-07T14:28:13;22.00;31.97
80824;SHT35;70538;59.122;37.876;2023-09-07T14:30:41;22.27;31.50
80824;SHT35;70538;59.122;37.876;2023-09-07T14:33:09;22.13;31.40
80824;SHT35;70538;59.122;37.876;2023-09-07T14:35:37;21.50;31.78
80824;SHT35;70538;59.122;37.876;2023-09-07T14:38:05;20.84;32.72
80824;SHT35;70538;59.122;37.876;2023-09-07T14:40:34;20.43;33.66
80824;SHT35;70538;59.122;37.876;2023-09-07T14:43:03;20.38;33.68
80824;SHT35;70538;59.122;37.876;2023-09-07T14:45:32;20.40;33.75
80824;SHT35;70538;59.122;37.876;2023-09-07T14:48:00;20.20;33.95
80824;SHT35;70538;59.122;37.876;2023-09-07T14:50:29;20.32;34.23
80824;SHT35;70538;59.122;37.876;2023-09-07T14:52:57;20.73;33.95
80824;SHT35;70538;59.122;37.876;2023-09-07T14:55:25;21.31;33.48
80824;SHT35;70538;59.122;37.876;2023-09-07T14:57:53;21.82;32.64
80824;SHT35;70538;59.122;37.876;2023-09-07T15:00:21;22.10;32.53
80824;SHT35;70538;59.122;37.876;2023-09-07T15:02:55;22.30;31.91
80824;SHT35;70538;59.122;37.876;2023-09-07T15:05:23;22.22;31.50
80824;SHT35;70538;59.122;37.876;2023-09-07T15:07:51;21.86;32.04
80824;SHT35;70538;59.122;37.876;2023-09-07T15:10:18;21.67;32.81
80824;SHT35;70538;59.122;37.876;2023-09-07T15:12:46;21.65;32.40
80824;SHT35;70538;59.122;37.876;2023-09-07T15:15:14;21.45;32.69
80824;SHT35;70538;59.122;37.876;2023-09-07T15:17:47;21.20;33.31
80824;SHT35;70538;59.122;37.876;2023-09-07T15:20:18;20.83;34.01
80824;SHT35;70538;59.122;37.876;2023-09-07T15:22:46;20.40;34.84
80824;SHT35;70538;59.122;37.876;2023-09-07T15:25:14;19.91;35.59